createdAt,value
2023-05-20T00:00:13.925Z,46.76
2023-05-20T00:03:03.046Z,46.98
2023-05-20T00:05:32.210Z,47.03
2023-05-20T00:08:04.160Z,47.09
2023-05-20T00:10:33.110Z,47.39
2023-05-20T00:13:02.181Z,47.18
2023-05-20T00:15:32.656Z,47.33
2023-05-20T00:18:03.454Z,47.42
2023-05-20T00:20:33.611Z,47.78
2023-05-20T00:23:02.545Z,47.86
2023-05-20T00:25:32.020Z,47.90
2023-05-20T00:28:01.352Z,48.06
2023-05-20T00:30:30.620Z,48.09
2023-05-20T00:32:59.779Z,48.14
2023-05-20T00:35:29.377Z,48.23
2023-05-20T00:37:58.499Z,48.22
2023-05-20T00:40:27.484Z,48.45
2023-05-20T00:42:56.591Z,48.66
2023-05-20T00:45:25.866Z,48.70
2023-05-20T00:47:59.147Z,48.72
2023-05-20T00:50:28.547Z,48.92
2023-05-20T00:52:58.297Z,48.99
2023-05-20T00:55:27.293Z,49.06
2023-05-20T00:57:56.557Z,49.21
2023-05-20T01:00:25.460Z,49.23
2023-05-20T01:02:56.714Z,49.23
2023-05-20T01:05:26.006Z,49.29
2023-05-20T01:07:55.422Z,49.40
2023-05-20T01:10:29.439Z,49.43
2023-05-20T01:13:03.769Z,49.53
2023-05-20T01:15:33.712Z,49.48
2023-05-20T01:18:06.911Z,49.67
2023-05-20T01:20:37.271Z,49.65
2023-05-20T01:23:06.317Z,49.75
2023-05-20T01:25:35.440Z,49.87
2023-05-20T01:28:05.464Z,49.97
2023-05-20T01:30:40.883Z,50.21
2023-05-20T01:33:12.549Z,50.36
2023-05-20T01:35:42.932Z,50.55
2023-05-20T01:38:13.839Z,50.54
2023-05-20T01:40:43.275Z,50.38
2023-05-20T01:43:13.416Z,50.52
2023-05-20T01:45:43.653Z,50.54
2023-05-20T01:48:13.081Z,50.58
2023-05-20T01:50:42.382Z,50.59
2023-05-20T01:53:12.848Z,50.83
2023-05-20T01:55:42.132Z,51.02
2023-05-20T01:58:11.247Z,51.02
2023-05-20T02:00:40.504Z,51.03
2023-05-20T02:03:09.591Z,51.14
2023-05-20T02:05:38.981Z,51.22
2023-05-20T02:08:08.536Z,51.33
2023-05-20T02:10:37.726Z,51.40
2023-05-20T02:13:06.778Z,51.51
2023-05-20T02:15:36.205Z,51.63
2023-05-20T02:18:07.819Z,51.66
2023-05-20T02:20:37.427Z,51.67
2023-05-20T02:23:06.366Z,51.73
2023-05-20T02:25:35.838Z,51.75
2023-05-20T02:28:10.080Z,51.73
2023-05-20T02:30:39.428Z,51.91
2023-05-20T02:33:09.201Z,52.07
2023-05-20T02:35:38.386Z,52.05
2023-05-20T02:38:07.486Z,52.10
2023-05-20T02:40:37.094Z,52.21
2023-05-20T02:43:06.199Z,52.33
2023-05-20T02:45:35.679Z,52.40
2023-05-20T02:48:05.338Z,52.56
2023-05-20T02:50:34.291Z,52.63
2023-05-20T02:53:03.204Z,52.56
2023-05-20T02:55:35.727Z,52.62
2023-05-20T02:58:04.816Z,52.69
2023-05-20T03:00:40.015Z,52.78
2023-05-20T03:03:10.228Z,52.75
2023-05-20T03:05:39.698Z,53.02
2023-05-20T03:08:10.280Z,53.07
2023-05-20T03:10:39.481Z,53.10
2023-05-20T03:13:10.764Z,53.19
2023-05-20T03:15:39.966Z,53.27
2023-05-20T03:18:09.281Z,53.38
2023-05-20T03:20:38.454Z,53.46
2023-05-20T03:23:08.182Z,53.54
2023-05-20T03:25:37.644Z,53.72
2023-05-20T03:28:06.952Z,53.69
2023-05-20T03:30:36.092Z,53.89
2023-05-20T03:33:05.692Z,53.94
2023-05-20T03:35:35.037Z,53.99
2023-05-20T03:38:04.120Z,54.03
2023-05-20T03:40:33.377Z,54.08
2023-05-20T03:43:02.516Z,54.19
2023-05-20T03:45:33.388Z,54.15
2023-05-20T03:48:03.605Z,54.18
2023-05-20T03:50:32.960Z,54.26
2023-05-20T03:53:01.921Z,54.31
2023-05-20T03:55:31.947Z,54.41
2023-05-20T03:58:01.217Z,54.50
2023-05-20T04:00:31.219Z,54.46
2023-05-20T04:03:00.797Z,54.45
2023-05-20T04:05:29.810Z,54.58
2023-05-20T04:07:58.814Z,54.68
2023-05-20T04:10:27.786Z,54.58
2023-05-20T04:12:56.918Z,54.44
2023-05-20T04:15:25.826Z,54.42
2023-05-20T04:17:55.193Z,54.33
2023-05-20T04:20:24.422Z,54.43
2023-05-20T04:22:54.601Z,54.41
2023-05-20T04:25:23.721Z,54.48
2023-05-20T04:27:53.602Z,54.39
2023-05-20T04:30:23.099Z,54.32
2023-05-20T04:32:53.155Z,54.51
2023-05-20T04:35:25.436Z,54.44
2023-05-20T04:37:54.901Z,54.53
2023-05-20T04:40:23.907Z,54.62
2023-05-20T04:42:52.963Z,54.63
2023-05-20T04:45:23.094Z,54.69
2023-05-20T04:47:52.762Z,54.50
2023-05-20T04:50:21.898Z,54.55
2023-05-20T04:52:53.833Z,54.45
2023-05-20T04:55:24.538Z,54.38
2023-05-20T04:57:53.585Z,54.38
2023-05-20T05:00:23.103Z,54.51
2023-05-20T05:02:52.127Z,54.17
2023-05-20T05:05:21.182Z,54.39
2023-05-20T05:07:50.263Z,54.17
2023-05-20T05:10:19.469Z,54.29
2023-05-20T05:12:48.335Z,54.34
2023-05-20T05:15:17.596Z,54.20
2023-05-20T05:17:46.857Z,54.14
2023-05-20T05:20:16.014Z,53.96
2023-05-20T05:22:45.289Z,53.85
2023-05-20T05:25:14.611Z,53.96
2023-05-20T05:27:44.077Z,53.96
2023-05-20T05:30:13.563Z,54.02
2023-05-20T05:32:42.788Z,53.64
2023-05-20T05:35:12.305Z,53.85
2023-05-20T05:37:41.515Z,53.67
2023-05-20T05:40:12.057Z,53.58
2023-05-20T05:42:41.128Z,53.74
2023-05-20T05:45:12.097Z,53.48
2023-05-20T05:47:41.532Z,53.53
2023-05-20T05:50:11.291Z,53.46
2023-05-20T05:52:40.770Z,53.23
2023-05-20T05:55:11.697Z,52.90
2023-05-20T05:57:40.642Z,52.87
2023-05-20T06:00:11.677Z,52.64
2023-05-20T06:02:40.897Z,52.47
2023-05-20T06:05:11.100Z,52.56
2023-05-20T06:07:40.034Z,52.58
2023-05-20T06:10:11.036Z,52.32
2023-05-20T06:12:39.992Z,52.33
2023-05-20T06:15:11.066Z,52.26
2023-05-20T06:17:40.115Z,52.13
2023-05-20T06:20:10.693Z,52.09
2023-05-20T06:22:39.683Z,51.85
2023-05-20T06:25:11.013Z,51.81
2023-05-20T06:27:39.925Z,51.75
2023-05-20T06:30:10.657Z,51.67
2023-05-20T06:32:39.646Z,51.59
2023-05-20T06:35:10.862Z,51.49
2023-05-20T06:37:40.083Z,51.26
2023-05-20T06:40:11.496Z,51.07
2023-05-20T06:42:40.325Z,51.06
2023-05-20T06:45:10.944Z,50.91
2023-05-20T06:47:40.331Z,50.78
2023-05-20T06:50:11.107Z,50.73
2023-05-20T06:52:40.178Z,50.50
2023-05-20T06:55:11.034Z,50.66
2023-05-20T06:57:40.010Z,50.53
2023-05-20T07:00:11.695Z,50.44
2023-05-20T07:02:41.921Z,50.35
2023-05-20T07:05:12.185Z,50.43
2023-05-20T07:07:41.191Z,50.36
2023-05-20T07:10:11.206Z,50.04
2023-05-20T07:12:40.584Z,50.09
2023-05-20T07:15:11.319Z,49.97
2023-05-20T07:17:40.370Z,49.82
2023-05-20T07:20:10.634Z,49.85
2023-05-20T07:22:39.727Z,50.00
2023-05-20T07:25:11.396Z,49.90
2023-05-20T07:27:40.598Z,49.77
2023-05-20T07:30:10.589Z,49.54
2023-05-20T07:32:39.711Z,49.58
2023-05-20T07:35:09.913Z,49.61
2023-05-20T07:37:38.890Z,49.47
2023-05-20T07:40:10.592Z,49.39
2023-05-20T07:42:39.643Z,49.09
2023-05-20T07:45:10.568Z,48.88
2023-05-20T07:47:39.946Z,48.94
2023-05-20T07:50:10.223Z,48.86
2023-05-20T07:52:54.591Z,48.74
2023-05-20T07:55:25.097Z,48.46
2023-05-20T07:57:54.155Z,48.44
2023-05-20T08:00:23.465Z,48.47
2023-05-20T08:02:52.489Z,48.09
2023-05-20T08:05:22.332Z,47.93
2023-05-20T08:07:51.261Z,47.99
2023-05-20T08:10:20.666Z,47.88
2023-05-20T08:12:49.704Z,47.56
2023-05-20T08:15:18.944Z,47.81
2023-05-20T08:17:47.864Z,47.77
2023-05-20T08:20:17.891Z,47.48
2023-05-20T08:22:46.883Z,47.11
2023-05-20T08:25:15.909Z,46.89
2023-05-20T08:27:44.994Z,47.04
2023-05-20T08:30:14.481Z,46.86
2023-05-20T08:32:43.625Z,46.19
2023-05-20T08:35:12.911Z,45.98
2023-05-20T08:37:42.115Z,46.13
2023-05-20T08:40:13.622Z,45.96
2023-05-20T08:42:43.337Z,45.82
2023-05-20T08:45:15.707Z,45.61
2023-05-20T08:47:45.568Z,45.22
2023-05-20T08:50:15.998Z,44.96
2023-05-20T08:52:46.732Z,44.72
2023-05-20T08:55:22.381Z,44.47
2023-05-20T08:57:53.915Z,44.04
2023-05-20T09:00:28.317Z,43.79
2023-05-20T09:03:00.897Z,43.59
2023-05-20T09:05:30.166Z,43.10
2023-05-20T09:08:07.051Z,42.95
2023-05-20T09:10:37.079Z,42.90
2023-05-20T09:13:07.310Z,42.65
2023-05-20T09:15:37.355Z,42.45
2023-05-20T09:18:08.120Z,42.04
2023-05-20T09:20:38.214Z,42.05
2023-05-20T09:23:08.767Z,41.68
2023-05-20T09:25:38.617Z,41.49
2023-05-20T09:28:08.765Z,41.41
2023-05-20T09:30:37.993Z,41.06
2023-05-20T09:33:08.867Z,40.98
2023-05-20T09:35:37.981Z,40.56
2023-05-20T09:38:09.399Z,40.30
2023-05-20T09:40:39.808Z,39.76
2023-05-20T09:43:10.691Z,39.70
2023-05-20T09:45:39.770Z,39.57
2023-05-20T09:48:10.892Z,39.25
2023-05-20T09:50:41.023Z,39.02
2023-05-20T09:53:11.726Z,38.62
2023-05-20T09:55:41.578Z,38.06
2023-05-20T09:58:14.782Z,37.26
2023-05-20T10:00:45.911Z,37.31
2023-05-20T10:03:15.090Z,37.63
2023-05-20T10:05:57.456Z,37.36
2023-05-20T10:09:03.625Z,36.92
2023-05-20T10:11:41.891Z,36.65
2023-05-20T10:14:26.213Z,36.85
2023-05-20T10:17:09.535Z,36.72
2023-05-20T10:19:39.239Z,36.60
2023-05-20T10:22:10.047Z,36.40
2023-05-20T10:24:40.944Z,36.36
2023-05-20T10:27:11.311Z,36.00
2023-05-20T10:29:51.913Z,36.15
2023-05-20T10:32:28.261Z,35.51
2023-05-20T10:35:01.400Z,34.90
2023-05-20T10:37:32.602Z,34.88
2023-05-20T10:40:08.479Z,35.30
2023-05-20T10:42:37.533Z,35.56
2023-05-20T10:45:09.051Z,35.19
2023-05-20T10:47:42.312Z,35.01
2023-05-20T10:50:28.645Z,34.98
2023-05-20T10:53:04.820Z,34.83
2023-05-20T10:55:38.255Z,34.59
2023-05-20T10:58:07.819Z,34.40
2023-05-20T11:00:37.749Z,34.87
2023-05-20T11:03:07.993Z,34.25
2023-05-20T11:05:39.000Z,33.90
2023-05-20T11:08:20.550Z,33.95
2023-05-20T11:10:58.071Z,34.01
2023-05-20T11:13:27.537Z,33.70
2023-05-20T11:15:57.599Z,33.74
2023-05-20T11:18:30.022Z,33.72
2023-05-20T11:20:59.757Z,33.62
2023-05-20T11:23:29.684Z,33.49
2023-05-20T11:25:58.913Z,33.44
2023-05-20T11:28:27.749Z,33.56
2023-05-20T11:30:56.839Z,33.34
2023-05-20T11:33:27.378Z,33.07
2023-05-20T11:35:57.110Z,32.94
2023-05-20T11:38:26.027Z,32.92
2023-05-20T11:40:56.100Z,32.75
2023-05-20T11:43:25.656Z,32.89
2023-05-20T11:45:56.202Z,33.02
2023-05-20T11:48:26.064Z,32.86
2023-05-20T11:50:56.434Z,32.92
2023-05-20T11:53:26.011Z,32.95
2023-05-20T11:55:56.290Z,32.86
2023-05-20T11:58:26.370Z,33.05
2023-05-20T12:01:02.358Z,32.66
2023-05-20T12:03:38.776Z,32.44
2023-05-20T12:06:07.790Z,32.22
2023-05-20T12:08:37.028Z,32.21
2023-05-20T12:11:05.992Z,31.96
2023-05-20T12:13:35.610Z,31.81
2023-05-20T12:16:05.731Z,31.48
2023-05-20T12:18:34.821Z,31.59
2023-05-20T12:21:03.749Z,31.72
2023-05-20T12:23:33.560Z,31.51
2023-05-20T12:26:02.540Z,31.25
2023-05-20T12:28:32.757Z,30.68
2023-05-20T12:31:01.868Z,30.69
2023-05-20T12:33:30.870Z,30.61
2023-05-20T12:36:00.140Z,30.79
2023-05-20T12:38:29.233Z,30.85
2023-05-20T12:40:58.265Z,30.64
2023-05-20T12:43:27.160Z,30.52
2023-05-20T12:45:56.463Z,30.39
2023-05-20T12:48:25.576Z,30.64
2023-05-20T12:50:54.825Z,30.66
2023-05-20T12:53:23.705Z,30.64
2023-05-20T12:55:52.814Z,30.49
2023-05-20T12:58:21.867Z,30.32
2023-05-20T13:00:51.016Z,30.25
2023-05-20T13:03:20.157Z,30.29
2023-05-20T13:05:49.079Z,30.61
2023-05-20T13:08:17.891Z,30.89
2023-05-20T13:10:46.761Z,30.90
2023-05-20T13:13:20.757Z,31.06
2023-05-20T13:15:49.845Z,31.13
2023-05-20T13:18:19.476Z,31.20
2023-05-20T13:20:48.499Z,31.12
2023-05-20T13:23:17.330Z,31.29
2023-05-20T13:25:46.308Z,31.04
2023-05-20T13:28:18.283Z,31.21
2023-05-20T13:30:47.455Z,31.05
2023-05-20T13:33:16.573Z,31.20
2023-05-20T13:35:45.636Z,31.16
2023-05-20T13:38:14.484Z,31.08
2023-05-20T13:40:43.536Z,31.24
2023-05-20T13:43:12.496Z,31.14
2023-05-20T13:45:42.616Z,31.13
2023-05-20T13:48:11.676Z,31.10
2023-05-20T13:50:41.078Z,31.03
2023-05-20T13:53:11.956Z,31.06
2023-05-20T13:55:41.777Z,31.28
2023-05-20T13:58:10.809Z,31.19
2023-05-20T14:00:40.067Z,31.40
2023-05-20T14:03:09.743Z,31.49
2023-05-20T14:05:40.152Z,31.61
2023-05-20T14:08:09.095Z,31.67
2023-05-20T14:10:38.196Z,31.77
2023-05-20T14:13:08.876Z,32.08
2023-05-20T14:15:37.866Z,32.13
2023-05-20T14:18:06.906Z,32.52
2023-05-20T14:20:36.133Z,32.30
2023-05-20T14:23:05.459Z,32.85
2023-05-20T14:25:34.436Z,32.71
2023-05-20T14:28:03.762Z,32.95
2023-05-20T14:30:33.243Z,32.97
2023-05-20T14:33:02.448Z,33.06
2023-05-20T14:35:31.482Z,33.09
2023-05-20T14:38:00.900Z,33.13
2023-05-20T14:40:30.125Z,33.39
2023-05-20T14:42:59.267Z,33.51
2023-05-20T14:45:28.646Z,33.50
2023-05-20T14:47:57.817Z,33.57
2023-05-20T14:50:27.012Z,33.50
2023-05-20T14:52:56.010Z,33.92
2023-05-20T14:55:25.158Z,33.92
2023-05-20T14:57:54.282Z,33.99
2023-05-20T15:00:23.315Z,33.93
2023-05-20T15:02:52.507Z,33.99
2023-05-20T15:05:21.563Z,34.35
2023-05-20T15:07:51.024Z,34.12
2023-05-20T15:10:20.132Z,34.39
2023-05-20T15:12:49.309Z,34.36
2023-05-20T15:15:18.521Z,34.45
2023-05-20T15:17:47.488Z,34.91
2023-05-20T15:20:16.695Z,34.75
2023-05-20T15:22:47.251Z,34.90
2023-05-20T15:25:16.690Z,35.11
2023-05-20T15:27:45.785Z,35.29
2023-05-20T15:30:16.595Z,35.42
2023-05-20T15:32:45.582Z,35.40
2023-05-20T15:35:14.739Z,35.74
2023-05-20T15:37:43.855Z,35.76
2023-05-20T15:40:13.508Z,35.57
2023-05-20T15:42:42.665Z,35.91
2023-05-20T15:45:12.291Z,36.19
2023-05-20T15:47:42.730Z,35.97
2023-05-20T15:50:12.316Z,36.00
2023-05-20T15:52:41.379Z,36.03
2023-05-20T15:55:11.349Z,36.07
2023-05-20T15:57:40.297Z,35.96
2023-05-20T16:00:11.738Z,36.02
2023-05-20T16:02:42.341Z,36.09
2023-05-20T16:05:11.848Z,35.96
2023-05-20T16:07:41.514Z,35.89
2023-05-20T16:10:11.562Z,35.59
2023-05-20T16:12:40.704Z,35.91
2023-05-20T16:15:11.446Z,35.76
2023-05-20T16:17:40.713Z,35.68
2023-05-20T16:20:11.407Z,35.47
2023-05-20T16:22:41.089Z,35.66
2023-05-20T16:25:11.093Z,35.79
2023-05-20T16:27:40.011Z,35.69
2023-05-20T16:30:11.644Z,35.94
2023-05-20T16:32:41.101Z,36.03
2023-05-20T16:35:10.869Z,36.08
2023-05-20T16:37:39.957Z,36.26
2023-05-20T16:40:10.607Z,36.41
2023-05-20T16:42:39.461Z,36.43
2023-05-20T16:45:10.343Z,36.39
2023-05-20T16:47:39.346Z,36.70
2023-05-20T16:50:13.348Z,36.70
2023-05-20T16:52:42.474Z,37.08
2023-05-20T16:55:13.076Z,36.85
2023-05-20T16:57:42.761Z,37.06
2023-05-20T17:00:13.530Z,37.12
2023-05-20T17:02:42.458Z,37.21
2023-05-20T17:05:11.707Z,37.44
2023-05-20T17:07:40.681Z,37.56
2023-05-20T17:10:11.004Z,37.61
2023-05-20T17:12:40.040Z,37.75
2023-05-20T17:15:10.509Z,37.89
2023-05-20T17:17:39.601Z,38.01
2023-05-20T17:20:10.896Z,38.13
2023-05-20T17:22:40.057Z,38.23
2023-05-20T17:25:10.402Z,38.59
2023-05-20T17:27:39.439Z,38.55
2023-05-20T17:30:09.740Z,38.63
2023-05-20T17:32:39.984Z,38.74
2023-05-20T17:35:09.953Z,38.91
2023-05-20T17:37:38.984Z,39.02
2023-05-20T17:40:10.644Z,39.14
2023-05-20T17:42:39.836Z,39.23
2023-05-20T17:45:10.750Z,39.34
2023-05-20T17:47:39.958Z,39.35
2023-05-20T17:50:10.754Z,39.50
2023-05-20T17:52:39.611Z,39.62
2023-05-20T17:55:09.480Z,39.75
2023-05-20T17:57:38.553Z,39.79
2023-05-20T18:00:10.428Z,39.97
2023-05-20T18:02:46.720Z,40.00
2023-05-20T18:05:16.641Z,40.16
2023-05-20T18:07:45.667Z,40.24
2023-05-20T18:10:14.659Z,40.31
2023-05-20T18:12:44.841Z,40.42
2023-05-20T18:15:13.951Z,40.47
2023-05-20T18:17:44.186Z,40.49
2023-05-20T18:20:14.734Z,40.56
2023-05-20T18:22:45.153Z,40.73
2023-05-20T18:25:14.899Z,40.67
2023-05-20T18:27:44.144Z,40.79
2023-05-20T18:30:13.373Z,40.75
2023-05-20T18:32:42.482Z,40.98
2023-05-20T18:35:11.746Z,40.90
2023-05-20T18:37:41.102Z,41.02
2023-05-20T18:40:12.006Z,41.11
2023-05-20T18:42:40.971Z,41.15
2023-05-20T18:45:11.690Z,41.21
2023-05-20T18:47:40.913Z,41.23
2023-05-20T18:50:11.552Z,41.35
2023-05-20T18:52:40.881Z,41.48
2023-05-20T18:55:10.413Z,41.55
2023-05-20T18:57:39.541Z,41.64
2023-05-20T19:00:11.586Z,41.59
2023-05-20T19:02:41.419Z,41.74
2023-05-20T19:05:11.885Z,41.79
2023-05-20T19:07:40.902Z,42.09
2023-05-20T19:10:11.116Z,42.07
2023-05-20T19:12:39.929Z,42.08
2023-05-20T19:15:11.013Z,42.09
2023-05-20T19:17:40.183Z,42.35
2023-05-20T19:20:10.880Z,42.31
2023-05-20T19:22:39.756Z,42.27
2023-05-20T19:25:09.895Z,42.38
2023-05-20T19:27:38.908Z,42.36
2023-05-20T19:30:11.134Z,42.45
2023-05-20T19:32:40.328Z,42.41
2023-05-20T19:35:10.156Z,42.70
2023-05-20T19:37:39.166Z,42.59
2023-05-20T19:40:10.426Z,42.70
2023-05-20T19:42:39.487Z,42.73
2023-05-20T19:45:10.735Z,42.76
2023-05-20T19:47:39.979Z,42.84
2023-05-20T19:50:10.691Z,42.71
2023-05-20T19:52:40.684Z,43.03
2023-05-20T19:55:10.610Z,42.94
2023-05-20T19:57:39.539Z,43.00
2023-05-20T20:00:10.854Z,43.15
2023-05-20T20:02:40.444Z,42.82
2023-05-20T20:05:10.401Z,43.28
2023-05-20T20:07:39.487Z,43.27
2023-05-20T20:10:10.489Z,43.33
2023-05-20T20:12:39.499Z,43.45
2023-05-20T20:15:11.054Z,43.54
2023-05-20T20:17:44.703Z,43.56
2023-05-20T20:20:14.738Z,43.53
2023-05-20T20:22:43.842Z,43.48
2023-05-20T20:25:13.768Z,43.76
2023-05-20T20:27:43.437Z,43.62
2023-05-20T20:30:14.538Z,43.79
2023-05-20T20:32:43.626Z,43.72
2023-05-20T20:35:12.758Z,43.90
2023-05-20T20:37:41.638Z,44.05
2023-05-20T20:40:12.740Z,44.20
2023-05-20T20:42:44.197Z,44.07
2023-05-20T20:45:14.676Z,44.45
2023-05-20T20:47:44.026Z,44.21
2023-05-20T20:50:13.228Z,44.29
2023-05-20T20:52:42.910Z,44.27
2023-05-20T20:55:12.119Z,44.33
2023-05-20T20:57:41.456Z,44.53
2023-05-20T21:00:16.978Z,44.57
2023-05-20T21:02:45.053Z,44.35
2023-05-20T21:05:16.324Z,44.51
2023-05-20T21:07:49.258Z,44.51
2023-05-20T21:10:18.709Z,44.80
2023-05-20T21:12:47.728Z,44.82
2023-05-20T21:15:17.069Z,44.98
2023-05-20T21:17:46.207Z,45.00
2023-05-20T21:20:15.411Z,45.08
2023-05-20T21:22:44.525Z,45.18
2023-05-20T21:25:13.734Z,45.23
2023-05-20T21:27:42.762Z,45.23
2023-05-20T21:30:12.627Z,45.41
2023-05-20T21:32:41.811Z,45.33
2023-05-20T21:35:11.169Z,45.44
2023-05-20T21:37:40.307Z,45.28
2023-05-20T21:40:10.977Z,45.53
2023-05-20T21:42:39.887Z,45.69
2023-05-20T21:45:10.982Z,45.74
2023-05-20T21:47:40.068Z,45.75
2023-05-20T21:50:11.081Z,45.82
2023-05-20T21:52:40.002Z,46.09
2023-05-20T21:55:10.626Z,46.18
2023-05-20T21:57:39.645Z,46.17
2023-05-20T22:00:14.166Z,46.42
2023-05-20T22:02:43.503Z,46.33
2023-05-20T22:05:12.986Z,46.36
2023-05-20T22:07:43.784Z,46.64
2023-05-20T22:10:13.654Z,46.59
2023-05-20T22:12:42.874Z,46.57
2023-05-20T22:15:12.567Z,46.83
2023-05-20T22:17:41.804Z,46.87
2023-05-20T22:20:13.189Z,46.83
2023-05-20T22:22:42.417Z,46.86
2023-05-20T22:25:12.131Z,47.00
2023-05-20T22:27:42.299Z,46.97
2023-05-20T22:30:12.870Z,47.14
2023-05-20T22:32:42.071Z,47.24
2023-05-20T22:35:12.656Z,47.05
2023-05-20T22:37:41.539Z,47.26
2023-05-20T22:40:11.627Z,47.16
2023-05-20T22:42:40.631Z,47.46
2023-05-20T22:45:11.186Z,47.38
2023-05-20T22:47:40.338Z,47.53
2023-05-20T22:50:13.017Z,47.52
2023-05-20T22:52:42.418Z,47.45
2023-05-20T22:55:12.030Z,47.43
2023-05-20T22:57:41.041Z,47.56
2023-05-20T23:00:14.905Z,47.47
2023-05-20T23:02:45.119Z,47.40
2023-05-20T23:05:14.115Z,47.51
2023-05-20T23:07:44.301Z,47.53
2023-05-20T23:10:13.236Z,47.65
2023-05-20T23:12:42.190Z,47.61
2023-05-20T23:15:12.441Z,47.77
2023-05-20T23:17:41.520Z,47.61
2023-05-20T23:20:13.616Z,47.63
2023-05-20T23:22:42.562Z,47.86
2023-05-20T23:25:11.835Z,47.75
2023-05-20T23:27:40.785Z,47.90
2023-05-20T23:30:10.994Z,48.04
2023-05-20T23:32:40.059Z,47.79
2023-05-20T23:35:12.539Z,47.97
2023-05-20T23:37:41.494Z,48.18
2023-05-20T23:40:11.789Z,48.29
2023-05-20T23:42:40.920Z,48.22
2023-05-20T23:45:12.152Z,48.44
2023-05-20T23:47:41.518Z,48.30
2023-05-20T23:50:13.182Z,48.47
2023-05-20T23:52:42.178Z,48.53
2023-05-20T23:55:12.336Z,48.66
2023-05-20T23:57:41.426Z,48.51
